Time;durP1;ratioP1;P1;durP2;ratioP2;P2;SDS_P1;SDS_P2;PMS_P1;PMS_P2;Temp;Humidity;BMP_temperature;BMP_pressure;BME280_temperature;BME280_humidity;BME280_pressure;Samples;Min_cycle;Max_cycle;Signal;HPM_P1;HPM_P2
2022/08/09 00:00:51;;;;;;;2.65;1.42;;;;;;;17.87;71.58;98721.85;1756781;81;20940;-58
2022/08/09 00:03:17;;;;;;;2.87;1.37;;;;;;;17.90;71.34;98726.64;1756658;81;21060;-57
2022/08/09 00:05:44;;;;;;;4.22;1.45;;;;;;;17.93;70.97;98721.91;1756688;81;20909;-59
2022/08/09 00:08:10;;;;;;;4.40;1.52;;;;;;;17.97;70.80;98726.95;1732549;82;20925;-59
2022/08/09 00:10:38;;;;;;;3.35;1.20;;;;;;;17.99;69.67;98730.94;1732518;82;20944;-59
2022/08/09 00:13:06;;;;;;;3.80;1.30;;;;;;;17.96;68.82;98732.12;1732844;82;20901;-59
2022/08/09 00:15:33;;;;;;;1.57;1.12;;;;;;;17.94;68.32;98728.94;1732657;82;21229;-58
2022/08/09 00:18:00;;;;;;;4.30;1.27;;;;;;;17.93;68.72;98724.62;1732558;82;21012;-58
2022/08/09 00:20:26;;;;;;;3.98;1.80;;;;;;;17.91;68.98;98721.44;1732544;82;20949;-59
2022/08/09 00:22:53;;;;;;;3.10;1.98;;;;;;;17.93;69.29;98721.36;1732837;82;21451;-58
2022/08/09 00:25:19;;;;;;;2.27;1.20;;;;;;;17.91;70.40;98716.02;1732575;82;20996;-57
2022/08/09 00:27:46;;;;;;;2.20;1.27;;;;;;;17.88;69.98;98716.66;1732962;82;21401;-59
2022/08/09 00:30:13;;;;;;;4.30;1.12;;;;;;;17.86;69.62;98716.98;1732557;82;20935;-58
2022/08/09 00:32:40;;;;;;;5.75;1.20;;;;;;;17.86;69.08;98716.18;1732542;82;21003;-59
2022/08/09 00:35:08;;;;;;;3.20;1.45;;;;;;;17.87;68.84;98712.37;1732541;82;20925;-58
2022/08/09 00:37:34;;;;;;;1.98;1.32;;;;;;;17.89;68.38;98718.27;1732768;82;21484;-59
2022/08/09 00:40:01;;;;;;;3.17;1.35;;;;;;;17.89;68.00;98718.27;1732543;82;21063;-58
2022/08/09 00:42:27;;;;;;;2.90;1.50;;;;;;;17.87;67.63;98717.78;1732582;82;20886;-58
2022/08/09 00:44:54;;;;;;;4.05;1.07;;;;;;;17.88;67.35;98719.36;1732537;82;20928;-59
2022/08/09 00:47:22;;;;;;;3.15;1.10;;;;;;;17.88;67.08;98723.42;1756718;81;20957;-58
2022/08/09 00:49:48;;;;;;;3.95;1.30;;;;;;;17.90;67.06;98721.22;1747201;81;20917;-59
2022/08/09 00:52:15;;;;;;;3.17;1.30;;;;;;;17.89;66.95;98718.27;1735522;82;21290;-59
2022/08/09 00:54:42;;;;;;;2.15;1.07;;;;;;;17.87;66.99;98717.23;1714644;82;20983;-59
2022/08/09 00:57:08;;;;;;;1.62;1.10;;;;;;;17.86;66.98;98720.25;1735516;82;20884;-58
2022/08/09 00:59:35;;;;;;;5.35;1.35;;;;;;;17.86;66.93;98717.53;1735503;82;20889;-58
2022/08/09 01:02:01;;;;;;;3.17;1.30;;;;;;;17.85;67.33;98722.73;1735541;82;20904;-58
2022/08/09 01:04:51;;;;;;;3.33;1.35;;;;;;;17.83;67.39;98724.97;1735397;82;21251;-59
2022/08/09 01:07:29;;;;;;;3.05;1.10;;;;;;;17.81;67.87;98731.24;1735484;82;20853;-58
2022/08/09 01:10:03;;;;;;;4.20;1.35;;;;;;;17.76;66.97;98722.16;1735518;81;20928;-58
2022/08/09 01:12:50;;;;;;;3.85;1.20;;;;;;;17.75;67.41;98728.72;1734447;82;21523;-58
2022/08/09 01:15:21;;;;;;;2.42;1.20;;;;;;;17.74;67.58;98725.76;1735532;82;20893;-59
2022/08/09 01:17:57;;;;;;;2.30;1.50;;;;;;;17.73;67.97;98732.28;1735373;82;21152;-58
2022/08/09 01:20:48;;;;;;;3.02;1.70;;;;;;;17.73;68.68;98729.57;1735459;82;20925;-60
2022/08/09 01:24:01;;;;;;;2.55;1.60;;;;;;;17.75;69.11;98727.91;1735431;81;20841;-58
2022/08/09 01:27:04;;;;;;;2.50;1.40;;;;;;;17.69;69.52;98733.23;1735455;82;20897;-61
2022/08/09 01:29:43;;;;;;;3.15;1.70;;;;;;;17.66;70.12;98733.31;1650253;86;20940;-58
2022/08/09 01:32:12;;;;;;;6.00;2.00;;;;;;;17.62;70.56;98733.72;1723524;82;21786;-59
2022/08/09 01:34:39;;;;;;;5.87;2.10;;;;;;;17.60;70.96;98738.66;1735593;82;20913;-60
2022/08/09 01:37:06;;;;;;;3.95;2.20;;;;;;;17.58;71.25;98739.54;1735556;81;20921;-59
2022/08/09 01:39:34;;;;;;;4.60;2.65;;;;;;;17.52;71.71;98732.66;1735537;82;20976;-59
2022/08/09 01:42:04;;;;;;;4.65;2.50;;;;;;;17.48;72.21;98733.03;1735662;82;21554;-59
2022/08/09 01:44:31;;;;;;;8.85;2.70;;;;;;;17.41;71.93;98730.00;1735564;82;21256;-58
2022/08/09 01:49:40;;;;;;;;;;;;;;;17.35;72.15;98728.58;1738145;82;20988;-59
2022/08/09 01:52:11;;;;;;;5.03;2.50;;;;;;;17.35;72.53;98731.28;1735814;81;20084;-57
2022/08/09 01:54:44;;;;;;;6.22;2.52;;;;;;;17.33;72.63;98733.52;1735593;82;20929;-59
2022/08/09 01:57:15;;;;;;;6.05;2.77;;;;;;;17.33;72.36;98733.52;1734904;82;21136;-59
2022/08/09 01:59:45;;;;;;;5.85;2.87;;;;;;;17.27;72.75;98736.66;1734996;82;20933;-59
2022/08/09 02:02:11;;;;;;;5.78;2.47;;;;;;;17.20;73.23;98734.42;1715468;82;20936;-59
2022/08/09 02:04:38;;;;;;;6.78;2.92;;;;;;;17.16;73.35;98734.82;1733305;82;20932;-59
2022/08/09 02:07:07;;;;;;;4.55;2.85;;;;;;;17.13;73.69;98734.09;1735547;82;20920;-59
2022/08/09 02:09:46;;;;;;;8.35;3.20;;;;;;;17.10;74.06;98728.74;1735485;82;21405;-60
2022/08/09 02:12:13;;;;;;;8.90;3.17;;;;;;;17.08;74.09;98739.64;1733355;82;20990;-59
2022/08/09 02:14:41;;;;;;;6.95;2.80;;;;;;;17.04;74.12;98738.69;1735589;82;21499;-60
2022/08/09 02:17:08;;;;;;;5.25;2.70;;;;;;;17.01;74.39;98738.75;1735590;82;20861;-58
2022/08/09 02:19:35;;;;;;;6.12;2.60;;;;;;;16.98;74.86;98737.25;1735542;82;20929;-58
2022/08/09 02:22:06;;;;;;;6.60;2.40;;;;;;;16.92;75.07;98738.48;1735602;82;21066;-59
2022/08/09 02:24:35;;;;;;;4.47;1.70;;;;;;;16.90;74.89;98742.06;1735004;82;20968;-59
2022/08/09 02:27:06;;;;;;;3.22;1.80;;;;;;;16.90;74.10;98744.77;1735487;82;20993;-59
2022/08/09 02:29:40;;;;;;;7.30;1.95;;;;;;;16.93;73.57;98744.15;1735941;82;20944;-59
2022/08/09 02:32:08;;;;;;;5.22;1.72;;;;;;;16.95;72.90;98736.52;1736002;82;20935;-58
2022/08/09 02:34:35;;;;;;;6.28;1.98;;;;;;;17.02;72.40;98735.50;1735508;82;21230;-59
2022/08/09 02:37:05;;;;;;;5.62;2.27;;;;;;;17.06;71.91;98736.45;1744004;82;21432;-59
2022/08/09 02:39:35;;;;;;;6.37;2.10;;;;;;;17.09;71.48;98741.25;1735502;82;20965;-59
2022/08/09 02:42:15;;;;;;;4.33;2.10;;;;;;;17.10;71.41;98743.63;1735541;82;20901;-60
2022/08/09 02:44:43;;;;;;;7.00;2.42;;;;;;;17.10;71.19;98742.83;1735530;81;20948;-59
2022/08/09 02:47:12;;;;;;;6.30;2.22;;;;;;;17.09;71.04;98744.77;1736010;81;21296;-59
2022/08/09 02:49:59;;;;;;;7.62;2.70;;;;;;;17.09;71.43;98743.41;1714969;82;20969;-60
2022/08/09 02:52:31;;;;;;;5.25;2.15;;;;;;;17.08;71.78;98749.11;1746133;82;21463;-60
2022/08/09 02:54:57;;;;;;;6.62;2.45;;;;;;;17.06;72.27;98754.85;1745867;82;20940;-60
2022/08/09 02:57:24;;;;;;;6.05;2.30;;;;;;;17.06;72.04;98755.40;1746149;82;20881;-60
2022/08/09 02:59:50;;;;;;;4.70;2.08;;;;;;;17.04;72.43;98757.08;1746320;82;21868;-60
2022/08/09 03:02:17;;;;;;;5.87;2.40;;;;;;;17.03;72.68;98762.23;1745964;82;20916;-59
2022/08/09 03:04:43;;;;;;;10.10;2.50;;;;;;;17.06;72.63;98762.97;1746103;82;20924;-58
2022/08/09 03:07:11;;;;;;;8.00;2.58;;;;;;;17.06;72.80;98760.81;1746096;82;20972;-60
2022/08/09 03:09:38;;;;;;;4.67;2.22;;;;;;;17.06;73.23;98759.46;1759204;81;20889;-60
2022/08/09 03:12:05;;;;;;;5.95;2.45;;;;;;;17.04;73.70;98760.34;1733179;82;21211;-60
2022/08/09 03:14:32;;;;;;;5.00;2.45;;;;;;;16.99;74.08;98757.77;1730192;83;20984;-59
2022/08/09 03:16:59;;;;;;;4.80;2.25;;;;;;;16.94;74.73;98766.02;1730370;81;21460;-60
2022/08/09 03:19:27;;;;;;;7.67;2.77;;;;;;;16.90;74.65;98763.16;1730331;83;20933;-59
2022/08/09 03:21:53;;;;;;;4.70;2.35;;;;;;;16.89;74.74;98760.74;1730273;83;20981;-59
2022/08/09 03:24:20;;;;;;;8.00;2.40;;;;;;;16.85;74.78;98758.43;1730336;83;21231;-59
2022/08/09 03:26:47;;;;;;;6.10;2.40;;;;;;;16.82;75.27;98753.63;1730181;83;20889;-59
2022/08/09 03:29:13;;;;;;;7.87;2.17;;;;;;;16.76;75.92;98750.84;1730302;83;21461;-59
2022/08/09 03:31:40;;;;;;;6.00;2.27;;;;;;;16.72;76.62;98745.81;1709815;83;20976;-60
2022/08/09 03:34:07;;;;;;;5.53;2.27;;;;;;;16.68;77.40;98746.98;1730262;83;20893;-60
2022/08/09 03:36:35;;;;;;;7.67;2.22;;;;;;;16.65;78.07;98746.81;1758550;81;21287;-59
2022/08/09 03:39:03;;;;;;;7.70;2.50;;;;;;;16.62;78.67;98739.31;1732856;82;21419;-60
2022/08/09 03:41:29;;;;;;;5.67;2.40;;;;;;;16.60;79.38;98742.34;1745960;82;20968;-59
2022/08/09 03:43:56;;;;;;;6.87;2.70;;;;;;;16.59;79.67;98746.14;1745976;82;20924;-59
2022/08/09 03:46:22;;;;;;;6.17;2.35;;;;;;;16.56;80.01;98747.33;1746108;82;21008;-61
2022/08/09 03:48:57;;;;;;;5.97;2.58;;;;;;;16.54;80.19;98745.47;1745989;82;21223;-59
2022/08/09 03:51:25;;;;;;;4.75;2.27;;;;;;;16.51;80.45;98751.48;1746121;82;20936;-60
2022/08/09 03:53:51;;;;;;;5.30;2.27;;;;;;;16.51;80.37;98754.19;1746051;82;21495;-60
2022/08/09 03:56:18;;;;;;;5.83;2.55;;;;;;;16.51;80.12;98755.55;1745949;82;20939;-60
2022/08/09 03:58:45;;;;;;;4.75;2.52;;;;;;;16.50;79.13;98752.58;1745999;82;20896;-59
2022/08/09 04:01:11;;;;;;;4.25;2.33;;;;;;;16.50;78.46;98749.88;1725053;82;21226;-59
2022/08/09 04:03:38;;;;;;;5.12;2.52;;;;;;;16.48;78.74;98745.34;1746015;82;20888;-59
2022/08/09 04:06:05;;;;;;;7.45;2.42;;;;;;;16.46;78.87;98747.02;1746386;82;21417;-60
2022/08/09 04:08:32;;;;;;;7.28;2.58;;;;;;;16.43;79.10;98753.84;1745945;82;20940;-60
2022/08/09 04:10:59;;;;;;;8.13;2.45;;;;;;;16.44;79.44;98762.72;1746067;82;20920;-59
2022/08/09 04:13:25;;;;;;;5.20;2.50;;;;;;;16.46;78.91;98773.25;1745967;82;21204;-59
2022/08/09 04:15:52;;;;;;;5.35;2.10;;;;;;;16.50;78.58;98776.38;1759105;81;20925;-60
2022/08/09 04:18:18;;;;;;;4.92;2.50;;;;;;;16.52;78.03;98771.48;1751967;82;21384;-59
2022/08/09 04:20:46;;;;;;;7.40;2.27;;;;;;;16.54;77.86;98775.22;1746248;82;21415;-60
2022/08/09 04:23:13;;;;;;;6.10;2.05;;;;;;;16.54;77.95;98776.56;1745978;82;20983;-60
2022/08/09 04:25:40;;;;;;;6.00;2.70;;;;;;;16.51;78.57;98773.12;1746052;82;21238;-60
2022/08/09 04:28:06;;;;;;;7.62;2.40;;;;;;;16.48;79.59;98766.97;1745899;82;20889;-59
2022/08/09 04:30:34;;;;;;;5.85;2.50;;;;;;;16.51;80.17;98773.12;1746025;82;20948;-60
2022/08/09 04:33:00;;;;;;;6.28;2.33;;;;;;;16.46;80.43;98766.48;1745949;82;21427;-60
2022/08/09 04:35:27;;;;;;;6.37;2.50;;;;;;;16.46;80.49;98773.25;1746190;82;21392;-60
2022/08/09 04:37:53;;;;;;;2.87;2.10;;;;;;;16.43;80.76;98782.22;1746255;82;21463;-59
2022/08/09 04:40:19;;;;;;;5.42;2.72;;;;;;;16.39;80.98;98786.63;1746191;82;21498;-59
2022/08/09 04:42:46;;;;;;;9.93;2.40;;;;;;;16.37;80.98;98780.73;1746259;82;21404;-59
2022/08/09 04:45:13;;;;;;;7.05;3.17;;;;;;;16.33;81.26;98783.83;1746011;82;20911;-59
2022/08/09 04:47:39;;;;;;;4.83;2.60;;;;;;;16.27;81.55;98784.27;1746069;82;21514;-59
2022/08/09 04:50:07;;;;;;;5.78;2.55;;;;;;;16.25;82.16;98784.55;1745930;82;21105;-59
2022/08/09 04:52:34;;;;;;;4.35;2.58;;;;;;;16.23;82.92;98784.06;1740139;82;21448;-58
2022/08/09 04:55:01;;;;;;;4.47;2.37;;;;;;;16.21;83.71;98779.52;1740126;82;20960;-58
2022/08/09 04:57:28;;;;;;;7.65;2.87;;;;;;;16.22;84.61;98783.03;1740137;81;20929;-59
2022/08/09 04:59:55;;;;;;;4.40;2.50;;;;;;;16.25;85.21;98776.44;1740557;81;21388;-59
2022/08/09 05:02:24;;;;;;;8.50;2.80;;;;;;;16.27;85.48;98776.92;1740255;82;21109;-60
2022/08/09 05:04:50;;;;;;;4.65;2.90;;;;;;;16.28;85.62;98781.23;1761586;81;20889;-59
2022/08/09 05:07:18;;;;;;;7.67;3.05;;;;;;;16.27;85.70;98783.69;1754099;81;20876;-60
2022/08/09 05:09:46;;;;;;;6.20;2.95;;;;;;;16.29;85.79;98781.50;1740335;82;21349;-60
2022/08/09 05:12:13;;;;;;;10.00;2.92;;;;;;;16.36;86.25;98785.92;1740300;82;20987;-60
2022/08/09 05:14:39;;;;;;;6.03;2.85;;;;;;;16.44;86.28;98795.97;1740272;82;21185;-60
2022/08/09 05:17:06;;;;;;;7.53;3.25;;;;;;;16.46;86.26;98789.47;1740342;82;20968;-60
2022/08/09 05:19:33;;;;;;;6.75;2.85;;;;;;;16.48;85.98;98794.81;1740307;82;21333;-60
2022/08/09 05:22:00;;;;;;;5.78;2.80;;;;;;;16.51;85.67;98794.75;1740281;81;20968;-60
2022/08/09 05:24:26;;;;;;;6.75;3.40;;;;;;;16.54;85.74;98800.91;1761743;81;20842;-60
2022/08/09 05:26:53;;;;;;;7.20;3.33;;;;;;;16.57;85.64;98799.75;1742753;82;21503;-60
2022/08/09 05:29:19;;;;;;;5.92;3.10;;;;;;;16.62;85.67;98800.17;1742685;82;21226;-60
2022/08/09 05:31:47;;;;;;;7.10;3.45;;;;;;;16.65;85.56;98800.91;1743023;82;21391;-60
2022/08/09 05:34:14;;;;;;;7.12;3.12;;;;;;;16.68;85.03;98804.33;1742623;82;20932;-59
2022/08/09 05:36:42;;;;;;;10.72;3.40;;;;;;;16.71;84.85;98802.36;1742661;82;20948;-60
2022/08/09 05:39:08;;;;;;;9.43;3.27;;;;;;;16.72;84.68;98809.38;1742629;82;21120;-59
2022/08/09 05:41:35;;;;;;;7.47;3.12;;;;;;;16.73;83.91;98802.84;1742679;82;20885;-60
2022/08/09 05:44:02;;;;;;;7.97;3.20;;;;;;;16.72;83.91;98809.38;1742934;82;21471;-60
2022/08/09 05:46:29;;;;;;;9.18;3.70;;;;;;;16.74;84.34;98810.67;1742611;82;20940;-60
2022/08/09 05:48:56;;;;;;;9.43;2.98;;;;;;;16.79;84.31;98807.03;1730185;81;21039;-60
2022/08/09 05:51:22;;;;;;;10.23;3.58;;;;;;;16.84;84.05;98807.67;1709789;82;21317;-60
2022/08/09 05:53:49;;;;;;;7.58;3.12;;;;;;;16.91;83.87;98805.90;1703467;84;21031;-60
2022/08/09 05:56:16;;;;;;;5.62;3.05;;;;;;;16.94;83.41;98809.31;1703599;84;21123;-60
2022/08/09 05:58:43;;;;;;;5.37;2.90;;;;;;;16.96;83.41;98805.73;1704076;84;20936;-60
2022/08/09 06:01:10;;;;;;;10.40;3.20;;;;;;;17.01;83.03;98809.12;1704027;84;21012;-58
2022/08/09 06:03:36;;;;;;;7.80;2.80;;;;;;;17.05;82.70;98807.95;1704632;84;21409;-59
2022/08/09 06:06:04;;;;;;;3.35;2.50;;;;;;;17.07;83.29;98813.84;1704640;84;20997;-60
2022/08/09 06:08:30;;;;;;;5.83;2.90;;;;;;;17.06;82.61;98814.39;1704589;84;21011;-61
2022/08/09 06:10:57;;;;;;;6.62;2.85;;;;;;;17.04;82.38;98810.41;1704470;84;20987;-60
2022/08/09 06:13:24;;;;;;;4.25;2.80;;;;;;;17.01;82.36;98812.37;1704293;84;21641;-60
2022/08/09 06:15:51;;;;;;;4.20;2.52;;;;;;;16.99;82.25;98821.36;1704143;84;21115;-57
2022/08/09 06:18:19;;;;;;;6.80;3.08;;;;;;;16.97;82.74;98820.33;1707792;82;20952;-58
2022/08/09 06:20:46;;;;;;;6.25;2.58;;;;;;;16.97;82.51;98817.63;1718970;82;21015;-60
2022/08/09 06:23:13;;;;;;;4.87;2.70;;;;;;;16.98;82.22;98818.43;1706098;82;37858;-59
2022/08/09 06:25:40;;;;;;;7.78;3.25;;;;;;;16.97;81.75;98811.41;1713043;82;21015;-59
2022/08/09 06:28:06;;;;;;;7.33;3.22;;;;;;;16.98;81.94;98817.08;1722829;82;21267;-58
2022/08/09 06:35:47;;;;;;;8.40;3.20;;;;;;;17.04;83.38;98791.45;1705347;84;21585;-59
2022/08/09 06:38:13;;;;;;;8.20;3.00;;;;;;;17.14;83.69;98796.59;1700768;84;21072;-58
2022/08/09 06:40:40;;;;;;;7.75;3.00;;;;;;;17.25;83.58;98793.84;1692985;83;21124;-59
2022/08/09 06:43:06;;;;;;;7.50;2.90;;;;;;;17.34;84.06;98794.66;1690475;84;21133;-59
2022/08/09 06:45:34;;;;;;;4.50;2.52;;;;;;;17.44;83.89;98797.08;1690759;84;21038;-58
2022/08/09 06:48:00;;;;;;;7.12;2.50;;;;;;;17.51;83.22;98797.44;1691350;84;21029;-58
2022/08/09 06:50:27;;;;;;;9.43;2.50;;;;;;;17.60;83.01;98799.61;1693600;82;21777;-59
2022/08/09 06:52:53;;;;;;;6.28;2.50;;;;;;;17.68;82.30;98802.09;1695051;84;22093;-58
2022/08/09 06:55:20;;;;;;;5.95;2.50;;;;;;;17.76;81.90;98799.39;1696085;83;21509;-59
2022/08/09 06:57:48;;;;;;;5.47;2.08;;;;;;;17.86;81.33;98802.34;1712844;83;21547;-57
2022/08/09 07:00:16;;;;;;;3.65;2.08;;;;;;;17.95;80.21;98802.34;1712814;83;21533;-59
2022/08/09 07:02:43;;;;;;;3.72;2.08;;;;;;;18.01;80.18;98809.21;1704809;84;21119;-59
2022/08/09 07:05:10;;;;;;;4.20;2.00;;;;;;;18.09;79.45;98815.20;1704695;84;21208;-59
2022/08/09 07:07:36;;;;;;;10.32;2.47;;;;;;;18.16;78.58;98817.66;1705801;84;20897;-60
2022/08/09 07:10:04;;;;;;;3.00;1.72;;;;;;;18.23;78.16;98818.55;1705804;84;21051;-58
2022/08/09 07:12:31;;;;;;;4.65;1.92;;;;;;;18.28;77.37;98826.50;1705434;84;21555;-58
2022/08/09 07:14:58;;;;;;;5.10;1.90;;;;;;;18.36;76.74;98828.42;1705370;84;21071;-58
2022/08/09 07:17:24;;;;;;;6.87;1.65;;;;;;;18.46;76.29;98826.77;1705788;84;21107;-58
2022/08/09 07:19:50;;;;;;;5.10;1.50;;;;;;;18.56;75.59;98827.77;1705713;84;21044;-58
2022/08/09 07:22:17;;;;;;;4.80;1.80;;;;;;;18.65;74.60;98819.64;1705715;84;20894;-58
2022/08/09 07:24:44;;;;;;;7.85;1.40;;;;;;;18.74;74.27;98817.14;1705722;84;20965;-58
2022/08/09 07:27:11;;;;;;;3.85;1.40;;;;;;;18.83;73.47;98818.46;1705962;84;21005;-58
2022/08/09 07:29:37;;;;;;;3.08;1.47;;;;;;;18.93;73.21;98818.92;1706032;84;21425;-58
2022/08/09 07:32:05;;;;;;;2.17;1.50;;;;;;;19.08;73.23;98818.38;1706369;84;21038;-59
2022/08/09 07:34:32;;;;;;;3.42;1.60;;;;;;;19.23;72.88;98828.45;1705828;82;21464;-58
2022/08/09 07:36:59;;;;;;;5.65;1.70;;;;;;;19.32;72.43;98830.01;1703791;84;20941;-58
2022/08/09 07:39:26;;;;;;;3.50;1.70;;;;;;;19.37;71.25;98828.50;1703659;84;20992;-59
2022/08/09 07:41:52;;;;;;;3.98;1.47;;;;;;;19.43;71.06;98834.55;1705468;84;21108;-58
2022/08/09 07:44:19;;;;;;;3.27;1.30;;;;;;;19.57;71.20;98835.12;1705582;84;20934;-58
2022/08/09 07:46:46;;;;;;;4.10;1.60;;;;;;;19.70;70.86;98838.14;1705999;84;20993;-58
2022/08/09 07:49:13;;;;;;;6.78;1.85;;;;;;;19.79;70.33;98841.59;1705987;84;20999;-58
2022/08/09 07:51:41;;;;;;;5.62;1.60;;;;;;;19.86;69.76;98845.15;1706971;83;21005;-58
2022/08/09 07:54:08;;;;;;;2.87;1.22;;;;;;;19.89;69.39;98849.94;1711445;83;21934;-58
2022/08/09 07:56:36;;;;;;;5.03;1.42;;;;;;;19.93;69.37;98846.78;1704661;83;21003;-59
2022/08/09 07:59:03;;;;;;;2.17;1.30;;;;;;;19.96;69.06;98853.73;1701482;84;20990;-59
2022/08/09 08:01:29;;;;;;;2.02;1.20;;;;;;;19.99;69.17;98851.72;1701596;84;20934;-59
2022/08/09 08:03:56;;;;;;;4.50;1.20;;;;;;;20.05;68.39;98851.73;1707536;82;20880;-59
2022/08/09 08:06:22;;;;;;;5.12;1.20;;;;;;;20.09;67.62;98847.22;1682677;84;21243;-59
2022/08/09 08:08:49;;;;;;;4.05;1.42;;;;;;;20.10;67.40;98845.30;1705239;82;20936;-59
2022/08/09 08:11:16;;;;;;;4.08;1.60;;;;;;;20.11;67.30;98849.07;1706917;83;21006;-59
2022/08/09 08:13:55;;;;;;;5.70;1.60;;;;;;;20.08;66.83;98851.08;1670643;86;20988;-59
2022/08/09 08:16:22;;;;;;;3.12;1.50;;;;;;;20.03;66.61;98856.72;1684887;85;21014;-59
2022/08/09 08:18:48;;;;;;;2.22;1.30;;;;;;;20.00;66.56;98858.73;1671533;85;21851;-59
2022/08/09 08:21:15;;;;;;;2.83;1.47;;;;;;;19.99;66.62;98858.52;1694716;84;21029;-59
2022/08/09 08:23:41;;;;;;;2.17;1.50;;;;;;;19.96;66.64;98859.72;1702807;84;20946;-58
2022/08/09 08:26:09;;;;;;;6.60;1.55;;;;;;;19.94;66.96;98862.78;1703390;84;20953;-59
2022/08/09 08:28:36;;;;;;;4.37;1.62;;;;;;;19.96;66.94;98865.96;1703609;84;20938;-59
2022/08/09 08:31:02;;;;;;;4.70;2.10;;;;;;;20.01;67.74;98858.17;1703640;84;21485;-59
2022/08/09 08:33:29;;;;;;;3.52;1.80;;;;;;;20.07;67.40;98863.08;1703393;84;20899;-59
2022/08/09 08:35:55;;;;;;;5.12;1.98;;;;;;;20.11;68.17;98859.95;1702527;84;20958;-60
2022/08/09 08:38:22;;;;;;;2.62;1.42;;;;;;;20.16;68.48;98854.88;1702959;82;21576;-58
2022/08/09 08:40:49;;;;;;;3.47;1.20;;;;;;;20.17;67.42;98853.17;1707026;84;21090;-58
2022/08/09 08:43:15;;;;;;;2.98;1.32;;;;;;;20.20;67.24;98851.16;1678803;85;21214;-58
2022/08/09 08:45:49;;;;;;;2.22;1.00;;;;;;;20.23;67.04;98844.28;1672128;85;20991;-59
2022/08/09 08:48:16;;;;;;;2.33;1.17;;;;;;;20.27;66.80;98846.01;1702447;84;21034;-59
2022/08/09 08:50:43;;;;;;;2.83;1.17;;;;;;;20.30;65.73;98844.55;1703719;84;20915;-57
2022/08/09 08:53:09;;;;;;;2.10;1.00;;;;;;;20.33;65.16;98852.02;1682030;84;20882;-59
2022/08/09 08:55:36;;;;;;;3.25;1.00;;;;;;;20.35;65.07;98850.56;1733910;81;21221;-58
2022/08/09 08:58:03;;;;;;;1.52;0.90;;;;;;;20.38;64.93;98851.27;1721050;83;21025;-56
2022/08/09 09:00:30;;;;;;;3.47;1.02;;;;;;;20.40;65.08;98847.64;1712167;83;20998;-58
2022/08/09 09:02:58;;;;;;;3.70;1.02;;;;;;;20.40;64.89;98858.52;1718845;83;21057;-58
2022/08/09 09:05:25;;;;;;;1.60;1.05;;;;;;;20.39;64.96;98852.87;1721377;82;20968;-57
2022/08/09 09:07:52;;;;;;;2.40;1.05;;;;;;;20.37;64.35;98851.02;1720199;83;21129;-57
2022/08/09 09:10:19;;;;;;;2.10;0.80;;;;;;;20.34;64.31;98846.27;1718084;81;20984;-58
2022/08/09 09:12:45;;;;;;;1.22;0.80;;;;;;;20.34;64.21;98840.02;1716965;83;20984;-57
2022/08/09 09:15:12;;;;;;;1.42;0.70;;;;;;;20.32;63.98;98839.56;1719120;83;21020;-57
2022/08/09 09:17:39;;;;;;;1.90;0.90;;;;;;;20.34;63.86;98840.83;1723731;82;21073;-57
2022/08/09 09:20:11;;;;;;;1.42;1.00;;;;;;;20.37;63.87;98836.64;1749764;82;21242;-57
2022/08/09 09:22:56;;;;;;;2.30;1.00;;;;;;;20.44;64.38;98837.67;1725434;82;21544;-56
2022/08/09 09:25:37;;;;;;;;;;;;;;;20.53;64.61;98826.73;1719614;83;20938;-58
2022/08/09 09:28:05;;;;;;;1.27;0.80;;;;;;;20.59;64.80;98830.02;1731961;81;20574;-58
2022/08/09 09:30:33;;;;;;;1.40;0.93;;;;;;;20.61;64.53;98830.50;1710969;82;20910;-56
2022/08/09 09:33:07;;;;;;;2.85;0.90;;;;;;;20.64;64.18;98827.09;1715498;83;21178;-58
2022/08/09 09:35:33;;;;;;;3.05;0.82;;;;;;;20.67;64.54;98831.87;1703815;83;20932;-57
2022/08/09 09:38:00;;;;;;;3.42;1.20;;;;;;;20.73;64.36;98830.51;1692154;84;20917;-58
2022/08/09 09:40:41;;;;;;;1.30;0.90;;;;;;;20.76;64.90;98825.77;1693813;83;20969;-58
2022/08/09 09:43:08;;;;;;;2.12;0.70;;;;;;;20.82;63.85;98830.65;1712430;82;21525;-58
2022/08/09 09:45:53;;;;;;;3.75;1.15;;;;;;;20.88;63.63;98832.04;1722885;81;21066;-58
2022/08/09 09:48:20;;;;;;;2.85;1.00;;;;;;;20.99;64.19;98831.02;1704322;83;20913;-58
2022/08/09 09:50:49;;;;;;;2.00;0.85;;;;;;;21.07;63.64;98840.51;1711040;82;21027;-58
2022/08/09 09:53:23;;;;;;;1.87;1.00;;;;;;;21.10;62.53;98832.23;1724556;82;20863;-58
2022/08/09 09:55:59;;;;;;;1.50;0.95;;;;;;;21.05;61.44;98835.97;1740984;82;20910;-57
2022/08/09 09:58:47;;;;;;;3.33;1.10;;;;;;;21.01;61.94;98836.92;1743507;82;21783;-54
2022/08/09 10:01:19;;;;;;;1.75;0.90;;;;;;;20.97;61.96;98836.82;1711347;82;20905;-56
2022/08/09 10:03:50;;;;;;;1.65;1.00;;;;;;;20.99;61.39;98837.27;1693930;82;21508;-60
2022/08/09 10:06:16;;;;;;;1.45;0.95;;;;;;;20.96;61.21;98842.62;1710055;83;20946;-59
2022/08/09 10:08:46;;;;;;;2.05;1.02;;;;;;;20.94;61.92;98847.58;1712465;83;21649;-60
2022/08/09 10:11:19;;;;;;;3.60;0.90;;;;;;;20.91;62.08;98846.91;1727903;82;21102;-60
2022/08/09 10:13:47;;;;;;;1.35;0.85;;;;;;;20.90;62.21;98848.03;1695321;84;21065;-59
2022/08/09 10:16:17;;;;;;;2.27;1.02;;;;;;;20.92;62.40;98852.57;1711949;82;21062;-59
2022/08/09 10:18:52;;;;;;;3.20;0.80;;;;;;;20.92;61.87;98845.77;1740196;82;21544;-60
2022/08/09 10:21:18;;;;;;;1.15;0.80;;;;;;;20.93;61.56;98848.17;1734237;82;20887;-60
2022/08/09 10:23:46;;;;;;;2.90;1.00;;;;;;;20.94;61.43;98847.58;1705696;83;21102;-60
2022/08/09 10:26:12;;;;;;;2.25;0.98;;;;;;;20.96;61.55;98849.42;1694715;83;21439;-60
2022/08/09 10:28:41;;;;;;;2.55;0.98;;;;;;;21.00;61.60;98846.25;1711599;83;21070;-60
2022/08/09 10:31:08;;;;;;;3.67;0.90;;;;;;;21.03;62.01;98851.03;1730300;82;20990;-60
2022/08/09 10:33:35;;;;;;;2.10;0.90;;;;;;;21.08;61.80;98846.73;1742017;81;21035;-59
2022/08/09 10:36:04;;;;;;;1.72;0.88;;;;;;;21.11;61.17;98842.78;1742142;82;21242;-60
2022/08/09 10:38:31;;;;;;;4.72;1.10;;;;;;;21.13;61.45;98839.14;1741023;82;21114;-65
2022/08/09 10:40:57;;;;;;;1.67;0.68;;;;;;;21.18;61.02;98839.48;1740583;82;21522;-59
2022/08/09 10:43:25;;;;;;;2.87;0.80;;;;;;;21.23;60.78;98843.91;1741167;82;20940;-61
2022/08/09 10:45:52;;;;;;;1.22;0.88;;;;;;;21.22;61.15;98845.84;1741563;82;21051;-64
2022/08/09 10:48:32;;;;;;;1.35;0.93;;;;;;;21.20;60.60;98842.66;1741672;82;21871;-65
2022/08/09 10:51:19;;;;;;;2.70;1.00;;;;;;;21.20;60.84;98844.02;1740730;82;20979;-62
2022/08/09 10:54:04;;;;;;;1.47;0.95;;;;;;;21.20;61.35;98848.70;1733092;82;20968;-60
2022/08/09 10:56:36;;;;;;;2.87;1.00;;;;;;;21.17;61.36;98844.72;1728716;83;20987;-59
2022/08/09 10:59:28;;;;;;;3.95;1.10;;;;;;;21.18;61.00;98844.13;1728674;82;21472;-58
2022/08/09 11:01:54;;;;;;;2.22;0.85;;;;;;;21.22;62.35;98844.47;1728774;82;21440;-58
2022/08/09 11:04:25;;;;;;;5.10;0.98;;;;;;;21.27;61.13;98841.53;1728746;83;21011;-60
2022/08/09 11:07:04;;;;;;;2.45;1.05;;;;;;;21.33;61.15;98844.28;1728791;83;20993;-59
2022/08/09 11:09:46;;;;;;;2.75;0.90;;;;;;;21.32;61.06;98837.23;1728616;82;21040;-59
2022/08/09 11:12:16;;;;;;;5.55;1.20;;;;;;;21.35;62.22;98841.20;1728744;83;21472;-61
2022/08/09 11:14:54;;;;;;;2.95;1.05;;;;;;;21.36;62.11;98847.66;1728672;83;21137;-63
2022/08/09 11:17:26;;;;;;;1.60;1.00;;;;;;;21.38;61.90;98849.51;1689297;82;20950;-60
2022/08/09 11:20:02;;;;;;;3.20;0.93;;;;;;;21.35;61.02;98850.18;1704306;83;21432;-59
2022/08/09 11:22:47;;;;;;;2.62;1.30;;;;;;;21.30;60.96;98847.67;1708440;83;20950;-57
2022/08/09 11:25:23;;;;;;;2.08;1.00;;;;;;;21.27;61.60;98844.84;1730483;82;21524;-60
2022/08/09 11:27:52;;;;;;;3.17;1.10;;;;;;;21.23;61.80;98843.35;1725126;83;21261;-61
2022/08/09 11:30:28;;;;;;;3.17;1.10;;;;;;;21.18;61.54;98844.94;1719076;82;20892;-58
2022/08/09 11:33:21;;;;;;;2.58;1.27;;;;;;;21.06;61.95;98840.27;1727502;83;21139;-61
2022/08/09 11:35:59;;;;;;;1.55;1.05;;;;;;;20.99;62.20;98846.00;1720419;83;21531;-61
2022/08/09 11:38:32;;;;;;;1.98;1.10;;;;;;;20.93;62.27;98844.64;1685160;84;21508;-62
2022/08/09 11:41:15;;;;;;;4.85;1.10;;;;;;;20.86;62.13;98843.84;1702411;82;21244;-60
2022/08/09 11:43:51;;;;;;;2.22;1.60;;;;;;;20.82;62.34;98839.41;1702555;83;20876;-61
2022/08/09 11:46:18;;;;;;;2.85;1.70;;;;;;;20.78;61.95;98835.75;1718994;83;20958;-61
2022/08/09 11:48:51;;;;;;;2.83;1.40;;;;;;;20.76;62.15;98846.18;1702295;83;21057;-61
2022/08/09 11:51:20;;;;;;;3.08;1.37;;;;;;;20.68;62.58;98839.69;1700967;84;20883;-63